sensor_id;sensor_type;location;lat;lon;timestamp;P1;durP1;ratioP1;P2;durP2;ratioP2
10246;SDS011;5168;47.854;7.944;2023-05-24T00:00:39;8.67;;;7.77;;
10246;SDS011;5168;47.854;7.944;2023-05-24T00:03:05;7.73;;;6.87;;
10246;SDS011;5168;47.854;7.944;2023-05-24T00:05:31;6.90;;;6.23;;
10246;SDS011;5168;47.854;7.944;2023-05-24T00:07:57;8.63;;;6.87;;
10246;SDS011;5168;47.854;7.944;2023-05-24T00:10:24;6.37;;;5.27;;
10246;SDS011;5168;47.854;7.944;2023-05-24T00:12:49;6.97;;;6.27;;
10246;SDS011;5168;47.854;7.944;2023-05-24T00:15:15;7.10;;;6.40;;
10246;SDS011;5168;47.854;7.944;2023-05-24T00:17:41;6.97;;;6.27;;
10246;SDS011;5168;47.854;7.944;2023-05-24T00:20:07;7.43;;;6.73;;
10246;SDS011;5168;47.854;7.944;2023-05-24T00:22:35;9.67;;;8.30;;
10246;SDS011;5168;47.854;7.944;2023-05-24T00:25:01;7.43;;;6.63;;
10246;SDS011;5168;47.854;7.944;2023-05-24T00:27:27;8.33;;;6.43;;
10246;SDS011;5168;47.854;7.944;2023-05-24T00:29:52;7.17;;;6.47;;
10246;SDS011;5168;47.854;7.944;2023-05-24T00:32:18;7.23;;;6.27;;
10246;SDS011;5168;47.854;7.944;2023-05-24T00:34:44;7.27;;;6.53;;
10246;SDS011;5168;47.854;7.944;2023-05-24T00:37:10;9.13;;;8.17;;
10246;SDS011;5168;47.854;7.944;2023-05-24T00:39:36;9.00;;;7.83;;
10246;SDS011;5168;47.854;7.944;2023-05-24T00:42:02;7.20;;;6.50;;
10246;SDS011;5168;47.854;7.944;2023-05-24T00:44:28;7.67;;;6.77;;
10246;SDS011;5168;47.854;7.944;2023-05-24T00:46:55;7.00;;;6.30;;
10246;SDS011;5168;47.854;7.944;2023-05-24T00:49:20;9.97;;;8.17;;
10246;SDS011;5168;47.854;7.944;2023-05-24T00:51:47;8.10;;;6.83;;
10246;SDS011;5168;47.854;7.944;2023-05-24T00:54:13;6.97;;;6.27;;
10246;SDS011;5168;47.854;7.944;2023-05-24T00:56:40;7.80;;;7.00;;
10246;SDS011;5168;47.854;7.944;2023-05-24T00:59:06;7.00;;;6.30;;
10246;SDS011;5168;47.854;7.944;2023-05-24T01:01:32;8.20;;;7.37;;
10246;SDS011;5168;47.854;7.944;2023-05-24T01:03:58;6.27;;;5.63;;
10246;SDS011;5168;47.854;7.944;2023-05-24T01:06:24;6.67;;;6.00;;
10246;SDS011;5168;47.854;7.944;2023-05-24T01:11:56;7.80;;;7.00;;
10246;SDS011;5168;47.854;7.944;2023-05-24T01:17:50;7.27;;;6.57;;
10246;SDS011;5168;47.854;7.944;2023-05-24T01:20:18;12.23;;;8.40;;
10246;SDS011;5168;47.854;7.944;2023-05-24T01:26:01;10.03;;;8.40;;
10246;SDS011;5168;47.854;7.944;2023-05-24T01:28:30;11.90;;;9.57;;
10246;SDS011;5168;47.854;7.944;2023-05-24T01:30:58;7.83;;;7.13;;
10246;SDS011;5168;47.854;7.944;2023-05-24T01:33:25;10.27;;;9.23;;
10246;SDS011;5168;47.854;7.944;2023-05-24T01:35:50;8.17;;;7.27;;
10246;SDS011;5168;47.854;7.944;2023-05-24T01:38:16;9.20;;;8.10;;
10246;SDS011;5168;47.854;7.944;2023-05-24T01:40:42;9.30;;;8.03;;
10246;SDS011;5168;47.854;7.944;2023-05-24T01:43:15;10.50;;;8.70;;
10246;SDS011;5168;47.854;7.944;2023-05-24T01:48:59;9.97;;;8.57;;
10246;SDS011;5168;47.854;7.944;2023-05-24T01:51:06;10.67;;;9.30;;
10246;SDS011;5168;47.854;7.944;2023-05-24T01:53:40;9.67;;;8.67;;
10246;SDS011;5168;47.854;7.944;2023-05-24T01:56:10;9.97;;;7.73;;
10246;SDS011;5168;47.854;7.944;2023-05-24T01:58:37;10.87;;;8.13;;
10246;SDS011;5168;47.854;7.944;2023-05-24T02:01:05;9.73;;;7.90;;
10246;SDS011;5168;47.854;7.944;2023-05-24T02:03:31;9.60;;;8.60;;
10246;SDS011;5168;47.854;7.944;2023-05-24T02:05:57;10.23;;;8.27;;
10246;SDS011;5168;47.854;7.944;2023-05-24T02:08:23;9.70;;;8.63;;
10246;SDS011;5168;47.854;7.944;2023-05-24T02:10:49;11.40;;;8.77;;
10246;SDS011;5168;47.854;7.944;2023-05-24T02:13:15;8.60;;;7.17;;
10246;SDS011;5168;47.854;7.944;2023-05-24T02:15:42;10.53;;;8.80;;
10246;SDS011;5168;47.854;7.944;2023-05-24T02:18:08;9.33;;;7.77;;
10246;SDS011;5168;47.854;7.944;2023-05-24T02:20:35;11.07;;;8.30;;
10246;SDS011;5168;47.854;7.944;2023-05-24T02:23:04;10.10;;;7.47;;
10246;SDS011;5168;47.854;7.944;2023-05-24T02:25:31;9.67;;;6.77;;
10246;SDS011;5168;47.854;7.944;2023-05-24T02:27:57;7.60;;;6.77;;
10246;SDS011;5168;47.854;7.944;2023-05-24T02:30:23;10.93;;;6.60;;
10246;SDS011;5168;47.854;7.944;2023-05-24T02:32:49;7.80;;;7.00;;
10246;SDS011;5168;47.854;7.944;2023-05-24T02:35:14;6.83;;;6.13;;
10246;SDS011;5168;47.854;7.944;2023-05-24T02:37:40;7.00;;;6.30;;
10246;SDS011;5168;47.854;7.944;2023-05-24T02:40:06;6.93;;;5.93;;
10246;SDS011;5168;47.854;7.944;2023-05-24T02:42:32;7.10;;;5.90;;
10246;SDS011;5168;47.854;7.944;2023-05-24T02:44:58;10.63;;;8.77;;
10246;SDS011;5168;47.854;7.944;2023-05-24T02:47:24;9.00;;;8.10;;
10246;SDS011;5168;47.854;7.944;2023-05-24T02:49:51;9.73;;;8.13;;
10246;SDS011;5168;47.854;7.944;2023-05-24T02:52:20;8.40;;;7.47;;
10246;SDS011;5168;47.854;7.944;2023-05-24T02:54:47;9.20;;;7.60;;
10246;SDS011;5168;47.854;7.944;2023-05-24T02:57:13;6.93;;;6.23;;
10246;SDS011;5168;47.854;7.944;2023-05-24T02:59:38;7.40;;;6.23;;
10246;SDS011;5168;47.854;7.944;2023-05-24T03:02:04;6.67;;;5.97;;
10246;SDS011;5168;47.854;7.944;2023-05-24T03:04:29;8.33;;;7.17;;
10246;SDS011;5168;47.854;7.944;2023-05-24T03:06:55;9.37;;;7.57;;
10246;SDS011;5168;47.854;7.944;2023-05-24T03:09:21;10.60;;;8.53;;
10246;SDS011;5168;47.854;7.944;2023-05-24T03:11:47;11.53;;;8.37;;
10246;SDS011;5168;47.854;7.944;2023-05-24T03:14:12;12.10;;;9.77;;
10246;SDS011;5168;47.854;7.944;2023-05-24T03:16:38;8.73;;;7.83;;
10246;SDS011;5168;47.854;7.944;2023-05-24T03:19:04;8.37;;;7.47;;
10246;SDS011;5168;47.854;7.944;2023-05-24T03:21:30;9.33;;;7.83;;
10246;SDS011;5168;47.854;7.944;2023-05-24T03:23:56;9.43;;;8.13;;
10246;SDS011;5168;47.854;7.944;2023-05-24T03:26:22;9.80;;;8.60;;
10246;SDS011;5168;47.854;7.944;2023-05-24T03:28:49;8.43;;;7.53;;
10246;SDS011;5168;47.854;7.944;2023-05-24T03:31:15;7.07;;;6.37;;
10246;SDS011;5168;47.854;7.944;2023-05-24T03:33:41;8.43;;;7.57;;
10246;SDS011;5168;47.854;7.944;2023-05-24T03:36:07;8.30;;;7.50;;
10246;SDS011;5168;47.854;7.944;2023-05-24T03:38:33;7.93;;;7.13;;
10246;SDS011;5168;47.854;7.944;2023-05-24T03:40:58;8.60;;;7.70;;
10246;SDS011;5168;47.854;7.944;2023-05-24T03:43:24;7.33;;;6.63;;
10246;SDS011;5168;47.854;7.944;2023-05-24T03:45:50;6.70;;;6.00;;
10246;SDS011;5168;47.854;7.944;2023-05-24T03:48:16;6.20;;;5.60;;
10246;SDS011;5168;47.854;7.944;2023-05-24T03:50:44;5.73;;;5.23;;
10246;SDS011;5168;47.854;7.944;2023-05-24T03:53:10;6.40;;;5.80;;
10246;SDS011;5168;47.854;7.944;2023-05-24T03:55:35;5.73;;;5.23;;
10246;SDS011;5168;47.854;7.944;2023-05-24T03:58:01;5.33;;;4.83;;
10246;SDS011;5168;47.854;7.944;2023-05-24T04:00:27;6.00;;;5.40;;
10246;SDS011;5168;47.854;7.944;2023-05-24T04:02:52;5.53;;;5.03;;
10246;SDS011;5168;47.854;7.944;2023-05-24T04:05:19;5.60;;;5.10;;
10246;SDS011;5168;47.854;7.944;2023-05-24T04:07:45;5.30;;;4.80;;
10246;SDS011;5168;47.854;7.944;2023-05-24T04:10:11;6.17;;;5.57;;
10246;SDS011;5168;47.854;7.944;2023-05-24T04:12:36;6.97;;;5.97;;
10246;SDS011;5168;47.854;7.944;2023-05-24T04:15:02;7.07;;;6.37;;
10246;SDS011;5168;47.854;7.944;2023-05-24T04:17:28;6.60;;;6.00;;
10246;SDS011;5168;47.854;7.944;2023-05-24T04:19:58;6.67;;;5.83;;
10246;SDS011;5168;47.854;7.944;2023-05-24T04:22:24;6.00;;;5.43;;
10246;SDS011;5168;47.854;7.944;2023-05-24T04:24:49;9.13;;;8.10;;
10246;SDS011;5168;47.854;7.944;2023-05-24T04:27:15;7.77;;;6.73;;
10246;SDS011;5168;47.854;7.944;2023-05-24T04:29:42;8.33;;;7.20;;
10246;SDS011;5168;47.854;7.944;2023-05-24T04:32:09;8.53;;;7.70;;
10246;SDS011;5168;47.854;7.944;2023-05-24T04:34:38;7.93;;;6.97;;
10246;SDS011;5168;47.854;7.944;2023-05-24T04:37:06;8.57;;;7.63;;
10246;SDS011;5168;47.854;7.944;2023-05-24T04:39:32;8.67;;;7.03;;
10246;SDS011;5168;47.854;7.944;2023-05-24T04:41:58;11.70;;;9.73;;
10246;SDS011;5168;47.854;7.944;2023-05-24T04:44:24;9.10;;;8.20;;
10246;SDS011;5168;47.854;7.944;2023-05-24T04:46:51;11.87;;;9.27;;
10246;SDS011;5168;47.854;7.944;2023-05-24T04:49:17;10.57;;;9.47;;
10246;SDS011;5168;47.854;7.944;2023-05-24T04:51:43;12.70;;;9.43;;
10246;SDS011;5168;47.854;7.944;2023-05-24T04:54:09;9.33;;;7.30;;
10246;SDS011;5168;47.854;7.944;2023-05-24T04:56:35;10.97;;;9.13;;
10246;SDS011;5168;47.854;7.944;2023-05-24T04:59:02;8.90;;;7.77;;
10246;SDS011;5168;47.854;7.944;2023-05-24T05:01:31;9.80;;;8.80;;
10246;SDS011;5168;47.854;7.944;2023-05-24T05:03:57;8.60;;;7.70;;
10246;SDS011;5168;47.854;7.944;2023-05-24T05:06:23;9.07;;;7.60;;
10246;SDS011;5168;47.854;7.944;2023-05-24T05:08:49;11.67;;;8.70;;
10246;SDS011;5168;47.854;7.944;2023-05-24T05:11:18;9.60;;;8.00;;
10246;SDS011;5168;47.854;7.944;2023-05-24T05:13:44;9.37;;;7.60;;
10246;SDS011;5168;47.854;7.944;2023-05-24T05:16:10;10.50;;;7.63;;
10246;SDS011;5168;47.854;7.944;2023-05-24T05:18:35;8.53;;;7.63;;
10246;SDS011;5168;47.854;7.944;2023-05-24T05:21:01;9.37;;;8.17;;
10246;SDS011;5168;47.854;7.944;2023-05-24T05:23:28;11.00;;;7.53;;
10246;SDS011;5168;47.854;7.944;2023-05-24T05:25:54;10.53;;;8.93;;
10246;SDS011;5168;47.854;7.944;2023-05-24T05:28:20;9.40;;;8.40;;
10246;SDS011;5168;47.854;7.944;2023-05-24T05:30:46;7.70;;;6.90;;
10246;SDS011;5168;47.854;7.944;2023-05-24T05:33:11;8.77;;;7.87;;
10246;SDS011;5168;47.854;7.944;2023-05-24T05:35:37;10.63;;;7.60;;
10246;SDS011;5168;47.854;7.944;2023-05-24T05:38:03;8.13;;;7.27;;
10246;SDS011;5168;47.854;7.944;2023-05-24T05:40:29;9.03;;;7.57;;
10246;SDS011;5168;47.854;7.944;2023-05-24T05:42:54;11.70;;;7.63;;
10246;SDS011;5168;47.854;7.944;2023-05-24T05:45:20;8.27;;;7.47;;
10246;SDS011;5168;47.854;7.944;2023-05-24T05:47:46;10.03;;;8.40;;
10246;SDS011;5168;47.854;7.944;2023-05-24T05:50:11;9.30;;;8.00;;
10246;SDS011;5168;47.854;7.944;2023-05-24T05:52:37;9.00;;;7.80;;
10246;SDS011;5168;47.854;7.944;2023-05-24T05:55:03;7.37;;;6.67;;
10246;SDS011;5168;47.854;7.944;2023-05-24T05:57:28;7.83;;;6.93;;
10246;SDS011;5168;47.854;7.944;2023-05-24T05:59:54;9.50;;;7.87;;
10246;SDS011;5168;47.854;7.944;2023-05-24T06:02:19;7.87;;;6.93;;
10246;SDS011;5168;47.854;7.944;2023-05-24T06:04:46;8.30;;;7.23;;
10246;SDS011;5168;47.854;7.944;2023-05-24T06:07:13;10.77;;;7.77;;
10246;SDS011;5168;47.854;7.944;2023-05-24T06:09:39;11.80;;;8.47;;
10246;SDS011;5168;47.854;7.944;2023-05-24T06:12:04;7.93;;;6.90;;
10246;SDS011;5168;47.854;7.944;2023-05-24T06:14:30;10.23;;;8.07;;
10246;SDS011;5168;47.854;7.944;2023-05-24T06:16:58;8.60;;;7.70;;
10246;SDS011;5168;47.854;7.944;2023-05-24T06:19:23;10.17;;;7.90;;
10246;SDS011;5168;47.854;7.944;2023-05-24T06:21:49;9.07;;;7.60;;
10246;SDS011;5168;47.854;7.944;2023-05-24T06:24:16;8.60;;;7.10;;
10246;SDS011;5168;47.854;7.944;2023-05-24T06:26:49;11.30;;;8.80;;
10246;SDS011;5168;47.854;7.944;2023-05-24T06:29:15;8.57;;;7.13;;
10246;SDS011;5168;47.854;7.944;2023-05-24T06:31:44;7.23;;;6.43;;
10246;SDS011;5168;47.854;7.944;2023-05-24T06:34:11;7.17;;;6.43;;
10246;SDS011;5168;47.854;7.944;2023-05-24T06:36:37;8.00;;;6.87;;
10246;SDS011;5168;47.854;7.944;2023-05-24T06:39:06;8.00;;;7.20;;
10246;SDS011;5168;47.854;7.944;2023-05-24T06:41:35;6.93;;;5.40;;
10246;SDS011;5168;47.854;7.944;2023-05-24T06:44:01;6.63;;;5.83;;
10246;SDS011;5168;47.854;7.944;2023-05-24T06:46:27;6.77;;;6.03;;
10246;SDS011;5168;47.854;7.944;2023-05-24T06:48:52;7.33;;;6.07;;
10246;SDS011;5168;47.854;7.944;2023-05-24T06:51:18;7.80;;;6.47;;
10246;SDS011;5168;47.854;7.944;2023-05-24T06:53:44;9.03;;;7.67;;
10246;SDS011;5168;47.854;7.944;2023-05-24T06:56:09;8.57;;;7.63;;
10246;SDS011;5168;47.854;7.944;2023-05-24T06:58:35;8.17;;;6.90;;
10246;SDS011;5168;47.854;7.944;2023-05-24T07:01:01;8.33;;;7.00;;
10246;SDS011;5168;47.854;7.944;2023-05-24T07:03:28;9.63;;;7.37;;
10246;SDS011;5168;47.854;7.944;2023-05-24T07:05:54;10.83;;;7.70;;
10246;SDS011;5168;47.854;7.944;2023-05-24T07:08:20;9.47;;;7.03;;
10246;SDS011;5168;47.854;7.944;2023-05-24T07:10:46;8.63;;;7.70;;
10246;SDS011;5168;47.854;7.944;2023-05-24T07:13:11;9.70;;;7.07;;
10246;SDS011;5168;47.854;7.944;2023-05-24T07:15:39;9.67;;;6.47;;
10246;SDS011;5168;47.854;7.944;2023-05-24T07:18:07;10.20;;;7.50;;
10246;SDS011;5168;47.854;7.944;2023-05-24T07:20:33;8.50;;;6.70;;
10246;SDS011;5168;47.854;7.944;2023-05-24T07:22:59;9.20;;;7.73;;
10246;SDS011;5168;47.854;7.944;2023-05-24T07:25:25;9.30;;;7.87;;
10246;SDS011;5168;47.854;7.944;2023-05-24T07:27:51;8.90;;;7.43;;
10246;SDS011;5168;47.854;7.944;2023-05-24T07:30:17;10.07;;;7.03;;
10246;SDS011;5168;47.854;7.944;2023-05-24T07:32:42;10.93;;;8.37;;
10246;SDS011;5168;47.854;7.944;2023-05-24T07:35:09;8.77;;;7.53;;
10246;SDS011;5168;47.854;7.944;2023-05-24T07:37:37;7.30;;;6.53;;
10246;SDS011;5168;47.854;7.944;2023-05-24T07:40:02;7.50;;;6.50;;
10246;SDS011;5168;47.854;7.944;2023-05-24T07:42:29;6.60;;;5.90;;
10246;SDS011;5168;47.854;7.944;2023-05-24T07:44:55;6.93;;;5.60;;
10246;SDS011;5168;47.854;7.944;2023-05-24T07:47:21;10.77;;;6.90;;
10246;SDS011;5168;47.854;7.944;2023-05-24T07:49:47;8.13;;;6.90;;
10246;SDS011;5168;47.854;7.944;2023-05-24T07:52:13;10.67;;;7.47;;
10246;SDS011;5168;47.854;7.944;2023-05-24T07:54:38;7.97;;;6.83;;
10246;SDS011;5168;47.854;7.944;2023-05-24T07:57:04;7.97;;;6.23;;
10246;SDS011;5168;47.854;7.944;2023-05-24T07:59:31;8.77;;;6.73;;
10246;SDS011;5168;47.854;7.944;2023-05-24T08:01:57;8.27;;;7.37;;
10246;SDS011;5168;47.854;7.944;2023-05-24T08:04:27;8.23;;;6.97;;
10246;SDS011;5168;47.854;7.944;2023-05-24T08:06:54;7.93;;;6.77;;
10246;SDS011;5168;47.854;7.944;2023-05-24T08:09:21;8.00;;;7.20;;
10246;SDS011;5168;47.854;7.944;2023-05-24T08:11:47;6.93;;;6.20;;
10246;SDS011;5168;47.854;7.944;2023-05-24T08:14:12;8.17;;;6.50;;
10246;SDS011;5168;47.854;7.944;2023-05-24T08:16:38;5.67;;;5.07;;
10246;SDS011;5168;47.854;7.944;2023-05-24T08:19:04;8.13;;;6.07;;
10246;SDS011;5168;47.854;7.944;2023-05-24T08:21:30;6.97;;;6.27;;
10246;SDS011;5168;47.854;7.944;2023-05-24T08:23:57;6.00;;;5.40;;
10246;SDS011;5168;47.854;7.944;2023-05-24T08:26:24;7.03;;;6.33;;
10246;SDS011;5168;47.854;7.944;2023-05-24T08:28:50;6.47;;;5.60;;
10246;SDS011;5168;47.854;7.944;2023-05-24T08:31:16;6.37;;;5.77;;
10246;SDS011;5168;47.854;7.944;2023-05-24T08:33:42;7.80;;;6.33;;
10246;SDS011;5168;47.854;7.944;2023-05-24T08:36:08;8.70;;;6.43;;
10246;SDS011;5168;47.854;7.944;2023-05-24T08:38:33;6.40;;;5.77;;
10246;SDS011;5168;47.854;7.944;2023-05-24T08:41:00;7.37;;;5.57;;
10246;SDS011;5168;47.854;7.944;2023-05-24T08:43:29;6.50;;;5.70;;
10246;SDS011;5168;47.854;7.944;2023-05-24T08:45:55;5.93;;;5.33;;
10246;SDS011;5168;47.854;7.944;2023-05-24T08:48:22;6.80;;;5.40;;
10246;SDS011;5168;47.854;7.944;2023-05-24T08:50:49;7.00;;;6.17;;
10246;SDS011;5168;47.854;7.944;2023-05-24T08:53:15;5.63;;;4.97;;
10246;SDS011;5168;47.854;7.944;2023-05-24T08:55:43;10.27;;;6.40;;
10246;SDS011;5168;47.854;7.944;2023-05-24T08:58:09;8.93;;;5.53;;
10246;SDS011;5168;47.854;7.944;2023-05-24T09:00:35;5.63;;;5.07;;
10246;SDS011;5168;47.854;7.944;2023-05-24T09:03:01;7.17;;;6.03;;
10246;SDS011;5168;47.854;7.944;2023-05-24T09:05:28;6.73;;;6.00;;
10246;SDS011;5168;47.854;7.944;2023-05-24T09:07:55;5.17;;;4.67;;
10246;SDS011;5168;47.854;7.944;2023-05-24T09:10:22;6.30;;;5.40;;
10246;SDS011;5168;47.854;7.944;2023-05-24T09:12:51;6.53;;;5.83;;
10246;SDS011;5168;47.854;7.944;2023-05-24T09:15:21;7.20;;;6.13;;
10246;SDS011;5168;47.854;7.944;2023-05-24T09:17:47;8.27;;;6.50;;
10246;SDS011;5168;47.854;7.944;2023-05-24T09:20:12;9.27;;;6.37;;
10246;SDS011;5168;47.854;7.944;2023-05-24T09:22:39;7.53;;;5.90;;
10246;SDS011;5168;47.854;7.944;2023-05-24T09:25:06;7.87;;;5.50;;
10246;SDS011;5168;47.854;7.944;2023-05-24T09:27:32;6.97;;;5.63;;
10246;SDS011;5168;47.854;7.944;2023-05-24T09:29:59;8.50;;;6.20;;
10246;SDS011;5168;47.854;7.944;2023-05-24T09:32:25;9.27;;;6.23;;
10246;SDS011;5168;47.854;7.944;2023-05-24T09:34:52;6.43;;;5.33;;
10246;SDS011;5168;47.854;7.944;2023-05-24T09:37:20;5.23;;;4.73;;
10246;SDS011;5168;47.854;7.944;2023-05-24T09:39:48;5.10;;;4.60;;
10246;SDS011;5168;47.854;7.944;2023-05-24T09:42:18;7.03;;;4.77;;
10246;SDS011;5168;47.854;7.944;2023-05-24T09:44:48;7.40;;;5.50;;
10246;SDS011;5168;47.854;7.944;2023-05-24T09:47:33;7.10;;;6.10;;
10246;SDS011;5168;47.854;7.944;2023-05-24T09:50:00;9.13;;;6.10;;
10246;SDS011;5168;47.854;7.944;2023-05-24T09:52:27;6.37;;;5.33;;
10246;SDS011;5168;47.854;7.944;2023-05-24T09:54:52;6.37;;;5.33;;
10246;SDS011;5168;47.854;7.944;2023-05-24T09:57:18;8.43;;;5.93;;
10246;SDS011;5168;47.854;7.944;2023-05-24T09:59:50;6.20;;;5.50;;
10246;SDS011;5168;47.854;7.944;2023-05-24T10:02:16;7.43;;;5.50;;
10246;SDS011;5168;47.854;7.944;2023-05-24T10:04:45;8.37;;;5.50;;
10246;SDS011;5168;47.854;7.944;2023-05-24T10:07:11;6.30;;;5.07;;
10246;SDS011;5168;47.854;7.944;2023-05-24T10:09:37;6.70;;;4.97;;
10246;SDS011;5168;47.854;7.944;2023-05-24T10:12:04;8.37;;;5.30;;
10246;SDS011;5168;47.854;7.944;2023-05-24T10:14:35;5.63;;;5.03;;
10246;SDS011;5168;47.854;7.944;2023-05-24T10:17:05;9.37;;;6.43;;
10246;SDS011;5168;47.854;7.944;2023-05-24T10:19:35;6.97;;;5.97;;
10246;SDS011;5168;47.854;7.944;2023-05-24T10:22:04;5.70;;;5.07;;
10246;SDS011;5168;47.854;7.944;2023-05-24T10:24:32;4.90;;;4.37;;
10246;SDS011;5168;47.854;7.944;2023-05-24T10:27:09;7.70;;;6.13;;
10246;SDS011;5168;47.854;7.944;2023-05-24T10:32:10;6.87;;;5.53;;
10246;SDS011;5168;47.854;7.944;2023-05-24T10:34:40;6.77;;;4.97;;
10246;SDS011;5168;47.854;7.944;2023-05-24T10:37:07;7.40;;;5.27;;
10246;SDS011;5168;47.854;7.944;2023-05-24T10:39:33;11.13;;;6.57;;
10246;SDS011;5168;47.854;7.944;2023-05-24T10:42:05;6.07;;;5.10;;
10246;SDS011;5168;47.854;7.944;2023-05-24T10:44:31;6.70;;;4.87;;
10246;SDS011;5168;47.854;7.944;2023-05-24T10:47:01;5.27;;;4.67;;
10246;SDS011;5168;47.854;7.944;2023-05-24T10:49:28;6.63;;;5.30;;
10246;SDS011;5168;47.854;7.944;2023-05-24T10:51:59;6.47;;;5.77;;
10246;SDS011;5168;47.854;7.944;2023-05-24T10:54:26;6.10;;;4.93;;
10246;SDS011;5168;47.854;7.944;2023-05-24T10:56:52;8.37;;;5.17;;
10246;SDS011;5168;47.854;7.944;2023-05-24T10:59:27;8.97;;;7.10;;
10246;SDS011;5168;47.854;7.944;2023-05-24T11:02:01;9.30;;;5.93;;
10246;SDS011;5168;47.854;7.944;2023-05-24T11:04:35;6.50;;;4.83;;
10246;SDS011;5168;47.854;7.944;2023-05-24T11:07:03;5.93;;;5.23;;
10246;SDS011;5168;47.854;7.944;2023-05-24T11:09:33;7.27;;;5.73;;
10246;SDS011;5168;47.854;7.944;2023-05-24T11:12:05;6.50;;;4.60;;
10246;SDS011;5168;47.854;7.944;2023-05-24T11:14:33;8.13;;;5.87;;
10246;SDS011;5168;47.854;7.944;2023-05-24T11:17:06;7.40;;;5.23;;
10246;SDS011;5168;47.854;7.944;2023-05-24T11:19:33;7.17;;;6.13;;
10246;SDS011;5168;47.854;7.944;2023-05-24T11:22:25;9.43;;;5.80;;
10246;SDS011;5168;47.854;7.944;2023-05-24T11:24:51;12.67;;;6.70;;
10246;SDS011;5168;47.854;7.944;2023-05-24T11:27:17;8.17;;;6.43;;
10246;SDS011;5168;47.854;7.944;2023-05-24T11:29:44;6.10;;;5.43;;
10246;SDS011;5168;47.854;7.944;2023-05-24T11:32:17;5.73;;;4.83;;
10246;SDS011;5168;47.854;7.944;2023-05-24T11:34:47;8.93;;;6.00;;
10246;SDS011;5168;47.854;7.944;2023-05-24T11:37:13;8.83;;;5.60;;
10246;SDS011;5168;47.854;7.944;2023-05-24T11:39:39;8.03;;;5.50;;
10246;SDS011;5168;47.854;7.944;2023-05-24T11:42:06;9.97;;;5.27;;
10246;SDS011;5168;47.854;7.944;2023-05-24T11:44:33;6.00;;;4.87;;
10246;SDS011;5168;47.854;7.944;2023-05-24T11:47:02;7.93;;;4.40;;
10246;SDS011;5168;47.854;7.944;2023-05-24T11:49:29;6.17;;;5.20;;
10246;SDS011;5168;47.854;7.944;2023-05-24T11:51:55;8.27;;;5.50;;
10246;SDS011;5168;47.854;7.944;2023-05-24T11:54:22;6.73;;;5.27;;
10246;SDS011;5168;47.854;7.944;2023-05-24T11:56:49;7.23;;;5.93;;
10246;SDS011;5168;47.854;7.944;2023-05-24T11:59:16;8.17;;;5.60;;
10246;SDS011;5168;47.854;7.944;2023-05-24T12:01:46;7.53;;;5.70;;
10246;SDS011;5168;47.854;7.944;2023-05-24T12:04:11;9.70;;;5.90;;
10246;SDS011;5168;47.854;7.944;2023-05-24T12:06:38;9.47;;;6.13;;
10246;SDS011;5168;47.854;7.944;2023-05-24T12:09:06;12.10;;;6.80;;
10246;SDS011;5168;47.854;7.944;2023-05-24T12:11:39;10.07;;;6.13;;
10246;SDS011;5168;47.854;7.944;2023-05-24T12:14:06;9.90;;;6.23;;
10246;SDS011;5168;47.854;7.944;2023-05-24T12:16:36;11.13;;;6.00;;
10246;SDS011;5168;47.854;7.944;2023-05-24T12:19:02;9.30;;;5.73;;
10246;SDS011;5168;47.854;7.944;2023-05-24T12:21:33;9.20;;;5.73;;
10246;SDS011;5168;47.854;7.944;2023-05-24T12:24:12;8.93;;;6.80;;
10246;SDS011;5168;47.854;7.944;2023-05-24T12:26:42;9.80;;;6.63;;
10246;SDS011;5168;47.854;7.944;2023-05-24T12:29:10;10.03;;;6.53;;
10246;SDS011;5168;47.854;7.944;2023-05-24T12:31:39;7.23;;;5.93;;
10246;SDS011;5168;47.854;7.944;2023-05-24T12:34:25;8.50;;;6.53;;
10246;SDS011;5168;47.854;7.944;2023-05-24T12:36:51;10.70;;;6.40;;
10246;SDS011;5168;47.854;7.944;2023-05-24T12:39:23;9.40;;;5.90;;
10246;SDS011;5168;47.854;7.944;2023-05-24T12:41:55;8.37;;;6.30;;
10246;SDS011;5168;47.854;7.944;2023-05-24T12:44:23;6.37;;;5.33;;
10246;SDS011;5168;47.854;7.944;2023-05-24T12:46:50;8.27;;;5.77;;
10246;SDS011;5168;47.854;7.944;2023-05-24T12:49:17;7.53;;;5.73;;
10246;SDS011;5168;47.854;7.944;2023-05-24T12:51:43;9.30;;;5.63;;
10246;SDS011;5168;47.854;7.944;2023-05-24T12:54:09;9.23;;;5.97;;
10246;SDS011;5168;47.854;7.944;2023-05-24T12:56:35;8.30;;;5.43;;
10246;SDS011;5168;47.854;7.944;2023-05-24T12:59:00;9.63;;;5.37;;
10246;SDS011;5168;47.854;7.944;2023-05-24T13:01:26;8.50;;;5.97;;
10246;SDS011;5168;47.854;7.944;2023-05-24T13:03:52;6.93;;;5.20;;
10246;SDS011;5168;47.854;7.944;2023-05-24T13:06:18;7.33;;;5.77;;
10246;SDS011;5168;47.854;7.944;2023-05-24T13:08:44;8.47;;;5.27;;
10246;SDS011;5168;47.854;7.944;2023-05-24T13:11:10;6.13;;;4.73;;
10246;SDS011;5168;47.854;7.944;2023-05-24T13:13:36;5.50;;;4.77;;
10246;SDS011;5168;47.854;7.944;2023-05-24T13:16:02;9.27;;;5.90;;
10246;SDS011;5168;47.854;7.944;2023-05-24T13:18:32;7.07;;;4.97;;
10246;SDS011;5168;47.854;7.944;2023-05-24T13:20:58;7.20;;;5.00;;
10246;SDS011;5168;47.854;7.944;2023-05-24T13:23:27;8.07;;;4.90;;
10246;SDS011;5168;47.854;7.944;2023-05-24T13:25:53;5.37;;;4.70;;
10246;SDS011;5168;47.854;7.944;2023-05-24T13:28:19;5.53;;;4.40;;
10246;SDS011;5168;47.854;7.944;2023-05-24T13:30:46;7.07;;;5.03;;
10246;SDS011;5168;47.854;7.944;2023-05-24T13:33:12;5.87;;;4.53;;
10246;SDS011;5168;47.854;7.944;2023-05-24T13:35:38;8.07;;;4.60;;
10246;SDS011;5168;47.854;7.944;2023-05-24T13:38:04;5.97;;;4.63;;
10246;SDS011;5168;47.854;7.944;2023-05-24T13:40:30;9.87;;;5.23;;
10246;SDS011;5168;47.854;7.944;2023-05-24T13:42:56;7.83;;;4.63;;
10246;SDS011;5168;47.854;7.944;2023-05-24T13:45:22;8.63;;;5.13;;
10246;SDS011;5168;47.854;7.944;2023-05-24T13:47:48;7.03;;;4.80;;
10246;SDS011;5168;47.854;7.944;2023-05-24T13:50:14;5.83;;;4.80;;
10246;SDS011;5168;47.854;7.944;2023-05-24T13:52:40;6.80;;;5.10;;
10246;SDS011;5168;47.854;7.944;2023-05-24T13:55:06;7.43;;;4.37;;
10246;SDS011;5168;47.854;7.944;2023-05-24T13:57:32;7.10;;;4.67;;
10246;SDS011;5168;47.854;7.944;2023-05-24T13:59:58;5.90;;;4.33;;
10246;SDS011;5168;47.854;7.944;2023-05-24T14:02:24;7.33;;;4.40;;
10246;SDS011;5168;47.854;7.944;2023-05-24T14:04:50;4.77;;;3.87;;
10246;SDS011;5168;47.854;7.944;2023-05-24T14:07:17;8.77;;;4.80;;
10246;SDS011;5168;47.854;7.944;2023-05-24T14:09:43;5.60;;;3.93;;
10246;SDS011;5168;47.854;7.944;2023-05-24T14:12:09;7.70;;;4.40;;
10246;SDS011;5168;47.854;7.944;2023-05-24T14:14:35;6.20;;;3.83;;
10246;SDS011;5168;47.854;7.944;2023-05-24T14:17:01;6.03;;;3.53;;
10246;SDS011;5168;47.854;7.944;2023-05-24T14:19:26;4.73;;;3.37;;
10246;SDS011;5168;47.854;7.944;2023-05-24T14:21:52;6.93;;;3.83;;
10246;SDS011;5168;47.854;7.944;2023-05-24T14:24:18;4.83;;;3.37;;
10246;SDS011;5168;47.854;7.944;2023-05-24T14:26:43;4.87;;;3.77;;
10246;SDS011;5168;47.854;7.944;2023-05-24T14:29:11;6.13;;;3.30;;
10246;SDS011;5168;47.854;7.944;2023-05-24T14:31:36;6.37;;;3.67;;
10246;SDS011;5168;47.854;7.944;2023-05-24T14:34:09;6.57;;;3.67;;
10246;SDS011;5168;47.854;7.944;2023-05-24T14:36:35;6.90;;;4.40;;
10246;SDS011;5168;47.854;7.944;2023-05-24T14:39:03;7.33;;;4.43;;
10246;SDS011;5168;47.854;7.944;2023-05-24T14:41:30;5.17;;;4.07;;
10246;SDS011;5168;47.854;7.944;2023-05-24T14:43:56;5.90;;;4.27;;
10246;SDS011;5168;47.854;7.944;2023-05-24T14:46:22;6.63;;;3.77;;
10246;SDS011;5168;47.854;7.944;2023-05-24T14:48:48;5.87;;;3.93;;
10246;SDS011;5168;47.854;7.944;2023-05-24T14:51:14;3.90;;;3.30;;
10246;SDS011;5168;47.854;7.944;2023-05-24T14:53:40;4.97;;;3.33;;
10246;SDS011;5168;47.854;7.944;2023-05-24T14:56:05;6.50;;;4.03;;
10246;SDS011;5168;47.854;7.944;2023-05-24T14:58:33;6.67;;;3.50;;
10246;SDS011;5168;47.854;7.944;2023-05-24T15:00:59;5.00;;;3.20;;
10246;SDS011;5168;47.854;7.944;2023-05-24T15:03:25;6.93;;;3.80;;
10246;SDS011;5168;47.854;7.944;2023-05-24T15:05:51;6.60;;;4.13;;
10246;SDS011;5168;47.854;7.944;2023-05-24T15:08:17;5.63;;;3.40;;
10246;SDS011;5168;47.854;7.944;2023-05-24T15:10:43;5.47;;;4.00;;
10246;SDS011;5168;47.854;7.944;2023-05-24T15:13:10;7.53;;;3.53;;